Time;durP1;ratioP1;P1;durP2;ratioP2;P2;SDS_P1;SDS_P2;PMS_P1;PMS_P2;Temp;Humidity;BMP_temperature;BMP_pressure;BME280_temperature;BME280_humidity;BME280_pressure;Samples;Min_cycle;Max_cycle;Signal;HPM_P1;HPM_P2
2024/02/05 00:00:54;;;;;;;;;;;;;;;20.28;39.35;96199.22;10504719;28;2376;-68
2024/02/05 00:05:54;;;;;;;;;;;;;;;20.27;38.61;96195.81;10502613;28;2075;-69
2024/02/05 00:10:54;;;;;;;;;;;;;;;20.24;39.29;96193.69;10488016;28;2078;-69
2024/02/05 00:15:54;;;;;;;;;;;;;;;20.22;39.39;96195.78;10507814;28;2135;-68
2024/02/05 00:20:55;;;;;;;;;;;;;;;20.20;39.09;96178.69;10508426;28;2175;-68
2024/02/05 00:25:55;;;;;;;;;;;;;;;20.18;38.10;96178.91;10490303;28;2403;-68
2024/02/05 00:30:55;;;;;;;;;;;;;;;20.16;38.82;96181.00;10505908;28;2374;-69
2024/02/05 00:35:56;;;;;;;;;;;;;;;20.15;39.15;96173.38;10503264;28;2142;-68
2024/02/05 00:40:57;;;;;;;;;;;;;;;20.12;39.40;96189.69;10505779;28;2059;-68
2024/02/05 00:45:57;;;;;;;;;;;;;;;20.10;39.73;96183.88;10485803;28;2123;-68
2024/02/05 00:50:58;;;;;;;;;;;;;;;20.08;39.66;96180.72;10503394;28;2020;-67
2024/02/05 00:55:58;;;;;;;;;;;;;;;20.08;38.67;96184.16;10505390;28;2095;-68
2024/02/05 01:00:58;;;;;;;;;;;;;;;20.07;39.54;96192.31;10486587;28;2133;-67
2024/02/05 01:05:59;;;;;;;;;;;;;;;20.07;38.89;96194.94;10495878;28;2178;-68
2024/02/05 01:10:59;;;;;;;;;;;;;;;20.05;39.25;96202.31;10505417;28;2224;-68
2024/02/05 01:15:59;;;;;;;;;;;;;;;20.02;38.75;96201.00;10508170;28;2233;-68
2024/02/05 01:20:59;;;;;;;;;;;;;;;20.01;39.52;96198.63;10486658;28;2408;-68
2024/02/05 01:26:00;;;;;;;;;;;;;;;20.01;38.92;96202.03;10505349;28;2177;-68
2024/02/05 01:31:00;;;;;;;;;;;;;;;20.00;38.88;96212.81;10485696;28;2116;-67
2024/02/05 01:36:00;;;;;;;;;;;;;;;19.98;38.92;96220.19;10501153;28;2199;-69
2024/02/05 01:41:00;;;;;;;;;;;;;;;19.95;39.32;96221.47;10500039;28;2271;-68
2024/02/05 01:46:01;;;;;;;;;;;;;;;19.95;38.78;96241.72;10502532;28;2122;-68
2024/02/05 01:51:01;;;;;;;;;;;;;;;19.93;38.80;96231.47;10502627;28;2006;-68
2024/02/05 01:56:01;;;;;;;;;;;;;;;19.91;39.47;96228.31;10490218;28;2061;-68
2024/02/05 02:01:02;;;;;;;;;;;;;;;19.90;39.62;96244.34;10493048;28;2473;-69
2024/02/05 02:06:03;;;;;;;;;;;;;;;19.89;39.51;96248.03;10522891;28;2043;-68
2024/02/05 02:11:03;;;;;;;;;;;;;;;19.88;39.24;96246.44;10512366;28;2081;-69
2024/02/05 02:16:05;;;;;;;;;;;;;;;19.86;39.29;96232.75;10506652;28;2044;-67
2024/02/05 02:21:05;;;;;;;;;;;;;;;19.84;39.09;96240.13;10528930;27;2143;-68
2024/02/05 02:26:05;;;;;;;;;;;;;;;19.83;39.06;96249.84;10524273;28;2252;-67
2024/02/05 02:31:06;;;;;;;;;;;;;;;19.82;38.67;96226.44;10491074;28;1995;-68
2024/02/05 02:36:07;;;;;;;;;;;;;;;19.80;39.03;96244.31;10509274;28;2075;-67
2024/02/05 02:41:10;;;;;;;;;;;;;;;19.79;39.48;96232.19;10524785;27;2183;-68
2024/02/05 02:46:10;;;;;;;;;;;;;;;19.79;38.94;96237.47;10509629;28;2480;-68
2024/02/05 02:51:10;;;;;;;;;;;;;;;19.77;39.20;96240.34;10524394;27;2081;-68
2024/02/05 02:56:13;;;;;;;;;;;;;;;19.76;39.13;96243.25;10509429;28;2278;-68
2024/02/05 03:01:13;;;;;;;;;;;;;;;19.75;39.64;96252.16;10508871;28;2099;-68
2024/02/05 03:06:14;;;;;;;;;;;;;;;19.75;38.50;96252.97;10491189;28;2057;-68
2024/02/05 03:11:14;;;;;;;;;;;;;;;19.73;38.92;96251.63;10510022;28;2255;-67
2024/02/05 03:16:14;;;;;;;;;;;;;;;19.71;39.14;96240.56;10507389;28;2869;-68
2024/02/05 03:21:15;;;;;;;;;;;;;;;19.71;37.64;96246.63;10512370;28;2010;-68
2024/02/05 03:26:15;;;;;;;;;;;;;;;19.71;37.03;96272.13;10508829;28;2040;-67
2024/02/05 03:31:18;;;;;;;;;;;;;;;19.68;39.23;96273.44;10488695;28;2123;-67
2024/02/05 03:36:18;;;;;;;;;;;;;;;19.69;38.77;96275.03;10506479;28;2165;-68
2024/02/05 03:41:18;;;;;;;;;;;;;;;19.69;39.52;96284.75;10520883;28;2500;-67
2024/02/05 03:46:19;;;;;;;;;;;;;;;19.66;39.83;96295.78;10508761;28;2005;-68
2024/02/05 03:51:19;;;;;;;;;;;;;;;19.66;39.57;96306.31;10506912;28;2127;-67
2024/02/05 03:56:20;;;;;;;;;;;;;;;19.61;39.87;96309.69;10503549;28;2116;-69
2024/02/05 04:01:20;;;;;;;;;;;;;;;19.63;39.57;96317.34;10507274;28;2020;-68
2024/02/05 04:06:21;;;;;;;;;;;;;;;19.61;39.61;96328.13;10505337;28;2055;-67
2024/02/05 04:11:21;;;;;;;;;;;;;;;19.60;39.56;96342.28;10507603;28;2262;-67
2024/02/05 04:16:21;;;;;;;;;;;;;;;19.60;39.42;96341.53;10505782;28;2176;-67
2024/02/05 04:21:22;;;;;;;;;;;;;;;19.58;39.19;96352.28;10505195;28;2183;-67
2024/02/05 04:26:22;;;;;;;;;;;;;;;19.57;39.78;96347.28;10506539;28;2165;-67
2024/02/05 04:31:22;;;;;;;;;;;;;;;19.57;39.67;96360.41;10505096;28;2528;-68
2024/02/05 04:36:23;;;;;;;;;;;;;;;19.55;39.45;96357.25;10517102;28;2093;-66
2024/02/05 04:41:23;;;;;;;;;;;;;;;19.52;38.72;96355.13;10506170;28;2302;-67
2024/02/05 04:46:24;;;;;;;;;;;;;;;19.50;38.41;96360.63;10504254;28;2103;-68
2024/02/05 04:51:24;;;;;;;;;;;;;;;19.51;37.00;96367.50;10504285;28;2288;-67
2024/02/05 04:56:25;;;;;;;;;;;;;;;19.52;39.24;96374.31;10503950;28;2194;-67
2024/02/05 05:01:25;;;;;;;;;;;;;;;19.57;39.21;96381.47;10505791;28;2093;-67
2024/02/05 05:06:25;;;;;;;;;;;;;;;19.62;39.95;96379.66;10503913;28;2028;-68
2024/02/05 05:11:26;;;;;;;;;;;;;;;19.69;39.42;96376.81;10503646;28;2814;-67
2024/02/05 05:16:27;;;;;;;;;;;;;;;19.77;39.36;96389.50;10502579;28;2094;-67
2024/02/05 05:21:28;;;;;;;;;;;;;;;19.84;39.09;96397.97;10504133;28;2064;-67
2024/02/05 05:26:28;;;;;;;;;;;;;;;19.86;37.81;96394.03;10510208;28;2159;-67
2024/02/05 05:31:28;;;;;;;;;;;;;;;19.90;37.64;96378.53;10513723;28;2047;-67
2024/02/05 05:36:31;;;;;;;;;;;;;;;19.95;37.64;96396.97;10511399;28;2195;-68
2024/02/05 05:41:35;;;;;;;;;;;;;;;19.99;37.49;96400.72;10492661;28;2070;-68
2024/02/05 05:46:35;;;;;;;;;;;;;;;20.03;37.47;96399.16;10512219;28;2011;-68
2024/02/05 05:51:35;;;;;;;;;;;;;;;20.10;37.07;96407.59;10512353;28;2055;-68
2024/02/05 05:56:35;;;;;;;;;;;;;;;20.13;36.83;96417.63;10510904;28;2142;-68
2024/02/05 06:01:36;;;;;;;;;;;;;;;20.19;37.18;96416.63;10511654;28;2192;-65
2024/02/05 06:06:37;;;;;;;;;;;;;;;20.19;36.99;96424.50;10511135;28;2047;-67
2024/02/05 06:11:37;;;;;;;;;;;;;;;20.21;37.05;96428.50;10509547;28;2203;-68
2024/02/05 06:16:38;;;;;;;;;;;;;;;20.28;36.43;96425.63;10489734;28;2166;-67
2024/02/05 06:21:38;;;;;;;;;;;;;;;20.31;36.68;96432.22;10509349;28;2268;-67
2024/02/05 06:26:38;;;;;;;;;;;;;;;20.31;36.97;96425.13;10511641;28;2229;-67
2024/02/05 06:31:38;;;;;;;;;;;;;;;20.40;37.10;96433.34;10509430;28;2107;-68
2024/02/05 06:36:39;;;;;;;;;;;;;;;20.38;36.77;96432.81;10509230;28;2583;-62
2024/02/05 06:41:39;;;;;;;;;;;;;;;20.39;36.99;96442.28;10510353;28;2130;-62
2024/02/05 06:46:39;;;;;;;;;;;;;;;20.44;36.20;96437.84;10509000;28;2012;-66
2024/02/05 06:51:39;;;;;;;;;;;;;;;20.49;36.32;96437.88;10491954;28;2132;-65
2024/02/05 06:56:40;;;;;;;;;;;;;;;20.46;36.09;96445.50;10510470;28;2442;-68
2024/02/05 07:01:40;;;;;;;;;;;;;;;20.48;36.02;96452.09;10508632;28;2131;-67
2024/02/05 07:06:43;;;;;;;;;;;;;;;20.46;36.48;96454.19;10508842;28;2178;-64
2024/02/05 07:11:43;;;;;;;;;;;;;;;20.43;36.78;96457.31;10484984;28;2012;-67
2024/02/05 07:16:43;;;;;;;;;;;;;;;20.51;36.57;96459.47;10523340;28;2118;-68
2024/02/05 07:21:44;;;;;;;;;;;;;;;20.51;36.54;96464.72;10505755;28;2165;-67
2024/02/05 07:26:44;;;;;;;;;;;;;;;20.54;36.17;96464.25;10506665;28;2194;-67
2024/02/05 07:31:44;;;;;;;;;;;;;;;20.58;36.25;96465.31;10505581;28;1966;-66
2024/02/05 07:36:45;;;;;;;;;;;;;;;20.60;36.25;96468.47;10503689;28;2067;-67
2024/02/05 07:41:45;;;;;;;;;;;;;;;20.66;35.83;96467.44;10503748;28;1953;-68
2024/02/05 07:46:45;;;;;;;;;;;;;;;20.66;35.93;96453.47;10486901;28;2086;-68
2024/02/05 07:51:46;;;;;;;;;;;;;;;20.66;36.32;96449.00;10517106;27;2264;-67
2024/02/05 07:56:47;;;;;;;;;;;;;;;20.65;36.00;96444.78;10499751;28;2364;-67
2024/02/05 08:01:47;;;;;;;;;;;;;;;20.67;35.97;96445.31;10483058;28;2043;-65
2024/02/05 08:06:48;;;;;;;;;;;;;;;20.82;35.41;96444.59;10483190;28;2134;-68
2024/02/05 08:11:48;;;;;;;;;;;;;;;20.85;36.46;96441.44;10503135;28;2055;-66
2024/02/05 08:16:48;;;;;;;;;;;;;;;20.90;36.10;96441.44;10504304;28;2263;-67
2024/02/05 08:21:49;;;;;;;;;;;;;;;20.81;36.83;96438.50;10502656;28;2302;-66
2024/02/05 08:26:49;;;;;;;;;;;;;;;20.75;36.16;96444.03;10498181;28;2468;-67
2024/02/05 08:31:50;;;;;;;;;;;;;;;20.73;35.59;96444.28;10485423;28;2231;-68
2024/02/05 08:36:51;;;;;;;;;;;;;;;20.70;35.96;96422.94;10515572;27;2329;-68
2024/02/05 08:41:51;;;;;;;;;;;;;;;20.69;35.30;96427.41;10502327;28;2233;-67
2024/02/05 08:46:51;;;;;;;;;;;;;;;20.74;35.79;96430.06;10502867;28;2077;-67
2024/02/05 08:51:51;;;;;;;;;;;;;;;20.70;35.66;96434.28;10501423;28;2247;-67
2024/02/05 08:56:52;;;;;;;;;;;;;;;20.72;35.57;96416.38;10482074;28;2189;-67
2024/02/05 09:01:52;;;;;;;;;;;;;;;20.73;35.39;96423.19;10501190;28;1969;-67
2024/02/05 09:06:52;;;;;;;;;;;;;;;20.78;34.62;96425.88;10499394;28;1924;-66
2024/02/05 09:11:53;;;;;;;;;;;;;;;20.68;36.34;96420.56;10481948;28;2084;-67
2024/02/05 09:16:53;;;;;;;;;;;;;;;20.69;37.35;96411.59;10499975;28;2131;-67
2024/02/05 09:21:54;;;;;;;;;;;;;;;20.72;35.72;96405.81;10498190;28;2349;-67
2024/02/05 09:26:54;;;;;;;;;;;;;;;20.75;36.15;96409.78;10505427;28;2285;-65
2024/02/05 09:31:55;;;;;;;;;;;;;;;20.76;35.86;96406.91;10499714;28;2075;-66
2024/02/05 09:36:55;;;;;;;;;;;;;;;20.76;37.16;96406.91;10481773;28;2132;-66
2024/02/05 09:41:57;;;;;;;;;;;;;;;20.88;36.25;96401.38;10504340;28;2102;-66
2024/02/05 09:46:58;;;;;;;;;;;;;;;20.87;36.72;96405.09;10511404;28;2126;-66
2024/02/05 09:51:58;;;;;;;;;;;;;;;20.84;35.96;96406.38;10499120;28;2204;-66
2024/02/05 09:56:59;;;;;;;;;;;;;;;20.85;36.56;96400.09;10513158;28;2047;-66
2024/02/05 10:02:02;;;;;;;;;;;;;;;20.89;36.17;96401.16;10498554;28;2421;-66
2024/02/05 10:07:02;;;;;;;;;;;;;;;20.90;36.94;96404.56;10511226;28;2453;-66
2024/02/05 10:12:02;;;;;;;;;;;;;;;20.91;37.91;96401.69;10517203;28;2307;-66
2024/02/05 10:17:03;;;;;;;;;;;;;;;20.98;36.37;96404.84;10501148;28;2556;-66
2024/02/05 10:22:04;;;;;;;;;;;;;;;20.96;35.98;96390.34;10510141;28;2111;-67
2024/02/05 10:27:05;;;;;;;;;;;;;;;20.96;37.42;96379.78;10485322;28;2194;-66
2024/02/05 10:32:05;;;;;;;;;;;;;;;21.00;36.35;96371.09;10505412;28;2127;-67
2024/02/05 10:37:08;;;;;;;;;;;;;;;21.01;37.22;96364.81;10503007;28;1961;-67
2024/02/05 10:42:09;;;;;;;;;;;;;;;21.06;36.43;96358.78;10503430;28;2084;-67
2024/02/05 10:47:09;;;;;;;;;;;;;;;21.06;36.06;96346.38;10505819;28;2080;-67
2024/02/05 10:52:09;;;;;;;;;;;;;;;21.10;35.62;96343.22;10504658;28;2091;-66
2024/02/05 10:57:10;;;;;;;;;;;;;;;21.17;36.03;96333.19;10470865;28;2759;-69
2024/02/05 11:02:28;;;;;;;;;;;;;;;21.15;35.85;96328.19;10487986;28;2188;-68
2024/02/05 11:07:30;;;;;;;;;;;;;;;21.16;37.22;96326.34;10503962;28;2235;-68
2024/02/05 11:12:33;;;;;;;;;;;;;;;21.17;37.36;96312.91;10503510;28;2390;-68
2024/02/05 11:17:34;;;;;;;;;;;;;;;21.20;36.14;96306.31;10516743;28;2050;-68
2024/02/05 11:22:34;;;;;;;;;;;;;;;21.20;37.64;96299.22;10500190;28;1988;-68
2024/02/05 11:27:35;;;;;;;;;;;;;;;21.19;37.92;96288.91;10482006;28;2237;-68
2024/02/05 11:32:36;;;;;;;;;;;;;;;21.17;38.79;96285.75;10516400;28;2130;-68
2024/02/05 11:37:36;;;;;;;;;;;;;;;21.18;38.85;96279.44;10501725;28;2040;-68
2024/02/05 11:42:37;;;;;;;;;;;;;;;21.25;36.19;96277.28;10504841;28;1968;-67
2024/02/05 11:47:37;;;;;;;;;;;;;;;21.21;37.03;96271.78;10514486;28;2280;-70
2024/02/05 11:52:39;;;;;;;;;;;;;;;21.22;36.43;96269.94;10498512;28;3263;-70
2024/02/05 11:57:39;;;;;;;;;;;;;;;21.25;36.89;96258.84;10495261;28;2075;-72
2024/02/05 12:02:40;;;;;;;;;;;;;;;21.23;38.37;96264.38;10500002;28;2146;-72
2024/02/05 12:07:40;;;;;;;;;;;;;;;21.28;38.33;96258.31;10498079;28;2107;-69
2024/02/05 12:12:40;;;;;;;;;;;;;;;21.30;39.23;96257.00;10500267;28;2051;-69
2024/02/05 12:17:41;;;;;;;;;;;;;;;21.31;39.80;96245.38;10501082;28;2080;-68
2024/02/05 12:22:41;;;;;;;;;;;;;;;21.30;39.84;96232.47;10499139;28;2524;-69
2024/02/05 12:27:42;;;;;;;;;;;;;;;21.29;40.23;96236.97;10502399;28;2294;-69
2024/02/05 12:32:51;;;;;;;;;;;;;;;21.30;40.06;96216.66;10498929;28;2222;-69
2024/02/05 12:37:52;;;;;;;;;;;;;;;21.30;40.23;96216.66;10497411;28;2004;-69
2024/02/05 12:42:52;;;;;;;;;;;;;;;21.31;39.94;96212.97;10512749;28;2235;-69
2024/02/05 12:53:31;;;;;;;;;;;;;;;21.32;40.03;96196.09;10498502;28;2023;-69
2024/02/05 12:58:31;;;;;;;;;;;;;;;21.33;40.48;96190.53;10510163;28;2067;-69
2024/02/05 13:03:33;;;;;;;;;;;;;;;21.33;40.19;96189.78;10498653;28;2226;-68
2024/02/05 13:08:33;;;;;;;;;;;;;;;21.34;40.18;96180.78;10477887;28;2036;-69
2024/02/05 13:13:33;;;;;;;;;;;;;;;21.34;40.24;96170.25;10498711;28;2440;-69
2024/02/05 13:18:34;;;;;;;;;;;;;;;21.34;40.24;96171.03;10498752;28;2296;-69
2024/02/05 13:23:34;;;;;;;;;;;;;;;21.31;40.19;96171.56;10498752;28;2297;-70
2024/02/05 13:28:39;;;;;;;;;;;;;;;21.29;40.65;96159.72;10497533;28;2366;-70
2024/02/05 13:33:39;;;;;;;;;;;;;;;21.30;40.17;96153.38;10497949;28;1956;-70
2024/02/05 13:38:39;;;;;;;;;;;;;;;21.29;40.30;96152.59;10496730;28;2111;-70
2024/02/05 13:43:40;;;;;;;;;;;;;;;21.30;40.41;96138.34;10499571;28;2122;-68
2024/02/05 13:48:41;;;;;;;;;;;;;;;21.31;40.66;96139.16;10501102;28;2039;-70
2024/02/05 13:53:41;;;;;;;;;;;;;;;21.35;40.69;96134.91;10506245;28;2130;-68
2024/02/05 13:58:41;;;;;;;;;;;;;;;21.35;40.78;96138.31;10505758;28;2099;-70
2024/02/05 14:03:42;;;;;;;;;;;;;;;21.35;40.66;96134.91;10504509;28;2055;-71
2024/02/05 14:08:42;;;;;;;;;;;;;;;21.38;40.44;96131.72;10516616;28;2133;-69
2024/02/05 14:13:43;;;;;;;;;;;;;;;21.38;40.64;96129.09;10505754;28;2087;-71
2024/02/05 14:18:43;;;;;;;;;;;;;;;21.38;40.26;96129.88;10519282;27;2249;-71
2024/02/05 14:23:43;;;;;;;;;;;;;;;21.37;40.44;96127.53;10505359;28;2179;-71
2024/02/05 14:28:43;;;;;;;;;;;;;;;21.35;40.34;96124.38;10505997;28;2114;-71
2024/02/05 14:33:44;;;;;;;;;;;;;;;21.30;40.16;96119.91;10507318;28;2074;-71
2024/02/05 14:38:44;;;;;;;;;;;;;;;21.25;40.32;96119.91;10504665;28;2023;-71
2024/02/05 14:43:44;;;;;;;;;;;;;;;21.19;40.40;96120.19;10520449;28;2196;-71
2024/02/05 14:48:45;;;;;;;;;;;;;;;21.15;40.33;96113.84;10485715;28;2079;-72
2024/02/05 14:53:45;;;;;;;;;;;;;;;21.13;40.37;96110.69;10485895;28;2343;-71
2024/02/05 14:58:45;;;;;;;;;;;;;;;21.11;40.38;96103.06;10507523;28;2167;-72
2024/02/05 15:03:47;;;;;;;;;;;;;;;21.08;39.97;96096.47;10489152;28;1976;-70
2024/02/05 15:08:47;;;;;;;;;;;;;;;21.08;40.05;96104.38;10503477;28;2432;-71
2024/02/05 15:13:52;;;;;;;;;;;;;;;21.05;39.93;96099.66;10505144;28;2083;-70
2024/02/05 15:18:52;;;;;;;;;;;;;;;21.06;39.99;96095.97;10521726;28;2005;-71
2024/02/05 15:23:52;;;;;;;;;;;;;;;21.07;39.72;96099.41;10501566;28;2056;-71
2024/02/05 15:28:52;;;;;;;;;;;;;;;21.05;39.48;96094.41;10504451;28;2190;-71
2024/02/05 15:33:53;;;;;;;;;;;;;;;21.07;39.35;96096.75;10484247;28;2058;-70
2024/02/05 15:38:53;;;;;;;;;;;;;;;21.06;39.15;96095.97;10503700;28;2245;-71
2024/02/05 15:43:54;;;;;;;;;;;;;;;21.10;39.32;96103.34;10516676;27;2069;-70
2024/02/05 15:48:54;;;;;;;;;;;;;;;21.10;39.44;96090.16;10502743;28;2517;-71
2024/02/05 15:53:54;;;;;;;;;;;;;;;21.11;39.11;96091.72;10502427;28;2035;-71
2024/02/05 15:58:55;;;;;;;;;;;;;;;21.10;39.38;96085.69;10501875;28;2056;-71
2024/02/05 16:03:57;;;;;;;;;;;;;;;21.08;39.25;96078.03;10502787;28;2208;-71
2024/02/05 16:08:58;;;;;;;;;;;;;;;21.10;38.69;96077.00;10512660;28;2071;-72
2024/02/05 16:13:58;;;;;;;;;;;;;;;21.11;38.91;96070.66;10500871;28;2036;-70
2024/02/05 16:18:58;;;;;;;;;;;;;;;21.12;39.03;96077.50;10505753;28;2103;-70
2024/02/05 16:24:00;;;;;;;;;;;;;;;21.13;38.54;96071.16;10499497;28;2008;-70
2024/02/05 16:29:01;;;;;;;;;;;;;;;21.13;38.69;96068.53;10502160;28;2217;-70
2024/02/05 16:34:01;;;;;;;;;;;;;;;21.13;38.47;96065.88;10514258;27;2401;-70
2024/02/05 16:39:02;;;;;;;;;;;;;;;21.13;38.57;96071.16;10502040;28;2161;-70
2024/02/05 16:44:02;;;;;;;;;;;;;;;21.12;38.38;96059.06;10484872;28;2057;-69
2024/02/05 16:49:04;;;;;;;;;;;;;;;21.10;38.23;96063.81;10514077;28;2049;-70
2024/02/05 16:54:06;;;;;;;;;;;;;;;21.08;38.28;96062.22;10511432;28;2197;-69
2024/02/05 16:59:07;;;;;;;;;;;;;;;21.10;38.38;96069.09;10501190;28;2012;-70
2024/02/05 17:04:07;;;;;;;;;;;;;;;21.08;38.28;96055.38;10503044;28;1989;-70
2024/02/05 17:09:07;;;;;;;;;;;;;;;21.10;38.13;96050.63;10480065;28;2047;-70
2024/02/05 17:14:08;;;;;;;;;;;;;;;21.09;37.90;96044.56;10500357;28;2032;-70
2024/02/05 17:19:08;;;;;;;;;;;;;;;21.10;38.05;96051.44;10502869;28;2386;-70
2024/02/05 17:24:13;;;;;;;;;;;;;;;21.12;38.11;96037.97;10507498;28;2253;-70
2024/02/05 17:29:13;;;;;;;;;;;;;;;21.12;37.83;96037.97;10508301;28;2106;-70
2024/02/05 17:34:13;;;;;;;;;;;;;;;21.14;37.70;96041.13;10509472;28;2202;-70
2024/02/05 17:39:14;;;;;;;;;;;;;;;21.14;37.77;96034.00;10506854;28;2119;-70
2024/02/05 17:44:14;;;;;;;;;;;;;;;21.15;37.99;96034.78;10507299;28;2102;-70
2024/02/05 17:49:14;;;;;;;;;;;;;;;21.15;37.61;96034.78;10507433;28;2075;-70
2024/02/05 17:54:15;;;;;;;;;;;;;;;21.18;37.41;96044.78;10507238;28;2031;-69
2024/02/05 17:59:18;;;;;;;;;;;;;;;21.17;37.64;96037.94;10519117;28;2039;-69
2024/02/05 18:04:18;;;;;;;;;;;;;;;21.18;37.52;96029.78;10472908;28;2055;-69
2024/02/05 18:09:18;;;;;;;;;;;;;;;21.18;37.43;96031.63;10507888;28;2035;-69
2024/02/05 18:14:19;;;;;;;;;;;;;;;21.19;37.36;96025.28;10505225;28;2227;-69
2024/02/05 18:19:19;;;;;;;;;;;;;;;21.22;37.07;96020.25;10506990;28;2020;-69
2024/02/05 18:24:19;;;;;;;;;;;;;;;21.20;37.13;96021.59;10504445;28;2099;-70
2024/02/05 18:29:21;;;;;;;;;;;;;;;21.19;37.27;96018.16;10506471;28;2012;-68
2024/02/05 18:34:22;;;;;;;;;;;;;;;21.22;37.39;96022.91;10504267;28;2220;-70
2024/02/05 18:39:22;;;;;;;;;;;;;;;21.24;37.65;96020.78;10503224;28;2050;-70
2024/02/05 18:44:22;;;;;;;;;;;;;;;21.25;37.67;96018.91;10504753;28;2111;-67
2024/02/05 18:49:23;;;;;;;;;;;;;;;21.33;37.28;96015.75;10505613;28;2320;-70
2024/02/05 18:54:24;;;;;;;;;;;;;;;21.34;37.40;96018.09;10490388;28;2108;-74
2024/02/05 18:59:24;;;;;;;;;;;;;;;21.45;34.97;96008.28;10509288;28;2173;-67
2024/02/05 19:04:24;;;;;;;;;;;;;;;21.35;34.41;96011.75;10521257;28;2391;-70
2024/02/05 19:09:26;;;;;;;;;;;;;;;21.33;34.11;96010.47;10506842;28;2047;-67
2024/02/05 19:14:26;;;;;;;;;;;;;;;21.32;33.10;96006.22;10507942;28;2261;-70
2024/02/05 19:19:26;;;;;;;;;;;;;;;21.34;33.57;96006.75;10525260;27;2133;-69
2024/02/05 19:24:26;;;;;;;;;;;;;;;21.44;34.97;96004.06;10506172;28;2335;-68
2024/02/05 19:29:28;;;;;;;;;;;;;;;21.47;35.27;95995.63;10489670;28;2177;-74
2024/02/05 19:34:28;;;;;;;;;;;;;;;21.52;35.36;95998.19;10506608;28;2121;-68
2024/02/05 19:39:28;;;;;;;;;;;;;;;21.72;34.59;95998.09;10519206;28;2070;-67
2024/02/05 19:44:28;;;;;;;;;;;;;;;21.75;34.22;95994.88;10503825;28;2365;-67
2024/02/05 19:49:29;;;;;;;;;;;;;;;21.74;34.23;95990.69;10504081;28;2014;-67
2024/02/05 19:54:29;;;;;;;;;;;;;;;21.81;33.78;95986.69;10504676;28;2107;-68
2024/02/05 19:59:30;;;;;;;;;;;;;;;21.70;33.93;95979.13;10517565;27;2332;-67
2024/02/05 20:04:31;;;;;;;;;;;;;;;21.64;35.85;95969.63;10503016;28;2265;-67
2024/02/05 20:09:33;;;;;;;;;;;;;;;21.67;36.09;95967.25;10516657;27;1998;-66
2024/02/05 20:14:33;;;;;;;;;;;;;;;21.62;37.43;95966.47;10508204;28;2032;-70
2024/02/05 20:19:38;;;;;;;;;;;;;;;21.63;37.97;95978.63;10507018;28;2043;-70
2024/02/05 20:24:38;;;;;;;;;;;;;;;21.63;38.76;95983.91;10515960;28;2325;-66
2024/02/05 20:29:38;;;;;;;;;;;;;;;21.69;39.48;95977.53;10504348;28;2348;-66
2024/02/05 20:34:39;;;;;;;;;;;;;;;21.63;39.56;95974.16;10502958;28;2311;-73
2024/02/05 20:39:39;;;;;;;;;;;;;;;21.62;40.10;95971.75;10499381;28;2599;-72
2024/02/05 20:44:40;;;;;;;;;;;;;;;21.58;39.85;95976.81;10484553;28;2025;-72
2024/02/05 20:49:40;;;;;;;;;;;;;;;21.58;40.49;95973.38;10504392;28;2099;-73
2024/02/05 20:54:40;;;;;;;;;;;;;;;21.53;40.20;95971.56;10501344;28;1964;-71
2024/02/05 20:59:40;;;;;;;;;;;;;;;21.51;39.29;95965.78;10501700;28;2027;-71
2024/02/05 21:04:41;;;;;;;;;;;;;;;21.50;39.65;95968.69;10504670;28;2016;-71
2024/02/05 21:09:41;;;;;;;;;;;;;;;21.48;40.60;95954.97;10501999;28;2115;-72
2024/02/05 21:14:41;;;;;;;;;;;;;;;21.51;38.65;95949.97;10508107;28;2040;-72
2024/02/05 21:19:43;;;;;;;;;;;;;;;21.52;37.27;95948.88;10501517;28;2102;-71
2024/02/05 21:24:43;;;;;;;;;;;;;;;21.48;36.59;95945.22;10515897;28;2236;-73
2024/02/05 21:29:43;;;;;;;;;;;;;;;21.47;37.25;95942.88;10470560;28;2435;-71
2024/02/05 21:34:44;;;;;;;;;;;;;;;21.52;37.01;95940.97;10483869;28;2227;-72
2024/02/05 21:39:44;;;;;;;;;;;;;;;21.52;36.03;95937.53;10502164;28;2248;-70
2024/02/05 21:44:44;;;;;;;;;;;;;;;21.42;37.37;95934.97;10502370;28;2036;-71
2024/02/05 21:49:44;;;;;;;;;;;;;;;21.36;37.99;95931.59;10516982;28;1980;-70
2024/02/05 21:54:48;;;;;;;;;;;;;;;21.32;38.12;95927.13;10502672;28;2076;-65
2024/02/05 21:59:48;;;;;;;;;;;;;;;21.23;38.43;95926.13;10502518;28;1956;-65
2024/02/05 22:04:52;;;;;;;;;;;;;;;21.18;38.13;95923.53;10504345;28;2090;-70
2024/02/05 22:09:53;;;;;;;;;;;;;;;21.12;38.44;95916.72;10508676;28;2205;-69
2024/02/05 22:14:54;;;;;;;;;;;;;;;21.01;39.75;95916.75;10511128;28;2317;-70
2024/02/05 22:19:54;;;;;;;;;;;;;;;20.96;39.70;95908.84;10514094;28;2102;-70
2024/02/05 22:24:56;;;;;;;;;;;;;;;20.92;39.77;95915.72;10515487;28;2011;-69
2024/02/05 22:29:57;;;;;;;;;;;;;;;20.87;40.31;95913.13;10511549;28;2205;-69
2024/02/05 22:34:58;;;;;;;;;;;;;;;20.83;40.07;95906.84;10477362;28;2119;-69
2024/02/05 22:39:58;;;;;;;;;;;;;;;20.81;40.01;95897.63;10493218;28;2103;-70
2024/02/05 22:44:58;;;;;;;;;;;;;;;20.76;40.18;95913.44;10491485;28;2081;-70
2024/02/05 22:49:59;;;;;;;;;;;;;;;20.72;40.49;95909.75;10508265;28;2262;-70
2024/02/05 22:54:59;;;;;;;;;;;;;;;20.69;40.60;95905.06;10506005;28;2274;-68
2024/02/05 23:00:00;;;;;;;;;;;;;;;20.67;40.42;95892.13;10522263;28;2028;-69
2024/02/05 23:05:01;;;;;;;;;;;;;;;20.64;40.46;95891.91;10507498;28;2047;-69
2024/02/05 23:10:01;;;;;;;;;;;;;;;20.62;40.94;95889.53;10508083;28;2134;-68
2024/02/05 23:15:01;;;;;;;;;;;;;;;20.61;40.66;95897.72;10510435;28;2075;-68
2024/02/05 23:20:02;;;;;;;;;;;;;;;20.56;40.79;95895.88;10511785;28;2103;-68
2024/02/05 23:25:02;;;;;;;;;;;;;;;20.55;40.76;95889.03;10474396;28;2205;-69
2024/02/05 23:30:03;;;;;;;;;;;;;;;20.52;40.66;95889.59;10508332;28;2221;-68
2024/02/05 23:35:06;;;;;;;;;;;;;;;20.51;40.49;95890.63;10508447;28;2039;-68
2024/02/05 23:40:07;;;;;;;;;;;;;;;20.47;40.31;95892.22;10488560;28;2168;-69
2024/02/05 23:45:07;;;;;;;;;;;;;;;20.45;40.14;95881.16;10508123;28;2103;-69
2024/02/05 23:50:07;;;;;;;;;;;;;;;20.41;40.33;95877.50;10506362;28;2363;-68
2024/02/05 23:55:08;;;;;;;;;;;;;;;20.41;40.13;95872.22;10506687;28;2232;-69
